Time;durP1;ratioP1;P1;durP2;ratioP2;P2;SDS_P1;SDS_P2;PMS_P1;PMS_P2;Temp;Humidity;BMP_temperature;BMP_pressure;BME280_temperature;BME280_humidity;BME280_pressure;Samples;Min_cycle;Max_cycle;Signal;HPM_P1;HPM_P2
2021/04/24 00:02:15;;;;;;;13.37;6.77;;;4.40;99.90;;;;;;5042897;28;20237;-54
2021/04/24 00:04:42;;;;;;;17.17;7.30;;;4.40;99.90;;;;;;5053120;28;20205;-57
2021/04/24 00:07:09;;;;;;;17.13;7.07;;;4.40;99.90;;;;;;5047602;28;20543;-58
2021/04/24 00:09:36;;;;;;;13.57;7.40;;;4.40;99.90;;;;;;5061590;28;20248;-54
2021/04/24 00:12:04;;;;;;;12.17;6.53;;;4.30;99.90;;;;;;5065262;28;20229;-54
2021/04/24 00:14:30;;;;;;;12.20;6.60;;;4.40;99.90;;;;;;5038388;28;20200;-55
2021/04/24 00:16:56;;;;;;;12.37;6.63;;;4.40;99.90;;;;;;5024357;28;20199;-57
2021/04/24 00:19:22;;;;;;;8.97;6.77;;;4.30;99.90;;;;;;5022174;28;20188;-57
2021/04/24 00:21:48;;;;;;;14.40;7.03;;;4.30;99.90;;;;;;5024840;28;20215;-56
2021/04/24 00:24:14;;;;;;;13.70;7.17;;;4.30;99.90;;;;;;5023564;28;20188;-55
2021/04/24 00:26:41;;;;;;;12.03;7.03;;;4.30;99.90;;;;;;5022589;28;20199;-55
2021/04/24 00:29:07;;;;;;;18.67;7.63;;;4.30;99.90;;;;;;5026512;28;20210;-57
2021/04/24 00:31:34;;;;;;;14.40;7.93;;;4.30;99.90;;;;;;5053016;28;20510;-57
2021/04/24 00:34:00;;;;;;;10.27;7.30;;;4.20;99.90;;;;;;5055463;28;20196;-56
2021/04/24 00:36:26;;;;;;;17.53;7.73;;;4.20;99.90;;;;;;5057003;28;20198;-57
2021/04/24 00:38:52;;;;;;;13.33;7.03;;;4.20;99.90;;;;;;5053191;28;20199;-57
2021/04/24 00:41:18;;;;;;;15.57;7.87;;;4.20;99.90;;;;;;5057133;28;20308;-57
2021/04/24 00:43:45;;;;;;;14.03;7.37;;;4.10;99.90;;;;;;5063495;28;20400;-54
2021/04/24 00:46:14;;;;;;;12.47;7.27;;;4.10;99.90;;;;;;5043676;28;20211;-57
2021/04/24 00:48:41;;;;;;;10.83;7.43;;;4.10;99.90;;;;;;5060380;28;20195;-55
2021/04/24 00:51:08;;;;;;;11.90;7.37;;;4.10;99.90;;;;;;5064524;28;20227;-56
2021/04/24 00:53:35;;;;;;;15.57;7.47;;;4.10;99.90;;;;;;5060727;28;20212;-56
2021/04/24 00:56:01;;;;;;;10.93;7.00;;;4.00;99.90;;;;;;5064374;28;20191;-55
2021/04/24 00:58:28;;;;;;;11.37;7.30;;;4.00;99.90;;;;;;5060342;28;20186;-57
2021/04/24 01:00:55;;;;;;;14.23;7.33;;;4.00;99.90;;;;;;5047985;28;20265;-56
2021/04/24 01:03:21;;;;;;;20.13;7.17;;;4.00;99.90;;;;;;5050224;28;20687;-56
2021/04/24 01:05:47;;;;;;;13.73;6.93;;;4.00;99.90;;;;;;5043769;28;20195;-57
2021/04/24 01:08:14;;;;;;;16.37;6.80;;;4.00;99.90;;;;;;5048895;28;20533;-58
2021/04/24 01:10:43;;;;;;;13.33;7.23;;;4.00;99.90;;;;;;5053020;28;20931;-57
2021/04/24 01:13:10;;;;;;;13.03;7.13;;;3.90;99.90;;;;;;5064240;28;20647;-57
2021/04/24 01:15:37;;;;;;;15.37;6.73;;;4.00;99.90;;;;;;5058561;28;20328;-56
2021/04/24 01:18:07;;;;;;;16.43;6.27;;;4.00;99.90;;;;;;5046035;28;20207;-56
2021/04/24 01:20:34;;;;;;;12.33;6.83;;;4.00;99.90;;;;;;5059702;28;20207;-56
2021/04/24 01:23:02;;;;;;;11.00;5.73;;;4.00;99.90;;;;;;5063122;28;20290;-55
2021/04/24 01:25:28;;;;;;;13.63;6.27;;;4.00;99.90;;;;;;5059703;28;20210;-58
2021/04/24 01:27:56;;;;;;;14.57;7.00;;;4.10;99.90;;;;;;5063755;28;20659;-52
2021/04/24 01:30:27;;;;;;;12.00;6.27;;;4.00;99.90;;;;;;5060583;28;20575;-58
2021/04/24 01:32:54;;;;;;;11.37;6.63;;;4.00;99.90;;;;;;5047197;28;20297;-58
2021/04/24 01:35:22;;;;;;;12.60;6.13;;;4.00;99.90;;;;;;5056628;28;20702;-58
2021/04/24 01:37:48;;;;;;;14.70;7.00;;;4.00;99.90;;;;;;5055609;28;20288;-56
2021/04/24 01:40:18;;;;;;;13.10;6.80;;;4.00;99.90;;;;;;5053477;28;20206;-55
2021/04/24 01:42:45;;;;;;;13.37;6.40;;;4.00;99.90;;;;;;5061794;28;20190;-57
2021/04/24 01:45:16;;;;;;;12.43;7.00;;;4.10;99.90;;;;;;5043864;28;20294;-56
2021/04/24 01:47:44;;;;;;;15.37;8.10;;;4.10;99.90;;;;;;5032185;28;20866;-56
2021/04/24 01:50:13;;;;;;;11.77;6.40;;;4.10;99.90;;;;;;5054358;28;20221;-55
2021/04/24 01:52:41;;;;;;;12.23;7.47;;;4.10;99.90;;;;;;5061231;28;20205;-53
2021/04/24 01:55:11;;;;;;;13.47;6.73;;;4.10;99.90;;;;;;5062776;28;20190;-56
2021/04/24 01:57:40;;;;;;;12.17;6.70;;;4.10;99.90;;;;;;5060493;28;20851;-53
2021/04/24 02:00:08;;;;;;;15.77;6.83;;;4.10;99.90;;;;;;5063245;28;20186;-55
2021/04/24 02:02:34;;;;;;;11.77;6.47;;;4.10;99.90;;;;;;5059557;28;20297;-55
2021/04/24 02:05:01;;;;;;;12.53;6.53;;;4.10;99.90;;;;;;5045127;28;20561;-52
2021/04/24 02:07:27;;;;;;;10.43;6.40;;;4.10;99.90;;;;;;5048473;28;20195;-53
2021/04/24 02:09:54;;;;;;;11.70;6.80;;;4.00;99.90;;;;;;5054536;28;20219;-55
2021/04/24 02:12:20;;;;;;;14.20;6.47;;;4.00;99.90;;;;;;5060478;28;20217;-56
2021/04/24 02:14:49;;;;;;;12.67;7.17;;;4.00;99.90;;;;;;5061925;28;20195;-53
2021/04/24 02:17:17;;;;;;;11.33;6.63;;;4.00;99.90;;;;;;5043652;28;20199;-57
2021/04/24 02:19:46;;;;;;;12.63;6.27;;;4.00;99.90;;;;;;5045514;28;20432;-54
2021/04/24 02:22:12;;;;;;;14.57;6.87;;;4.00;99.90;;;;;;5056309;28;20279;-56
2021/04/24 02:24:41;;;;;;;13.23;6.83;;;4.00;99.90;;;;;;5060591;28;20195;-52
2021/04/24 02:27:09;;;;;;;16.50;7.23;;;4.00;99.90;;;;;;5062701;28;20202;-57
2021/04/24 02:29:35;;;;;;;13.23;7.07;;;4.00;99.90;;;;;;5059127;28;20297;-55
2021/04/24 02:32:05;;;;;;;12.80;6.97;;;4.00;99.90;;;;;;5063601;28;20211;-54
2021/04/24 02:34:31;;;;;;;16.00;7.30;;;3.90;99.90;;;;;;5027462;28;20214;-57
2021/04/24 02:36:57;;;;;;;14.90;7.00;;;3.90;99.90;;;;;;5051142;28;20258;-53
2021/04/24 02:39:31;;;;;;;11.50;7.07;;;3.90;99.90;;;;;;5048329;28;20199;-57
2021/04/24 02:41:59;;;;;;;15.70;7.40;;;3.90;99.90;;;;;;5026785;28;20214;-54
2021/04/24 02:44:25;;;;;;;10.73;6.77;;;3.90;99.90;;;;;;5023865;28;20724;-55
2021/04/24 02:46:51;;;;;;;14.33;7.80;;;3.90;99.90;;;;;;5027053;28;20195;-53
2021/04/24 02:49:18;;;;;;;13.53;7.20;;;3.90;99.90;;;;;;5020446;28;20196;-57
2021/04/24 02:51:44;;;;;;;13.93;7.47;;;3.90;99.90;;;;;;5049530;28;20231;-54
2021/04/24 02:54:10;;;;;;;13.00;7.37;;;3.90;99.90;;;;;;5046699;28;20198;-57
2021/04/24 02:56:36;;;;;;;11.77;7.13;;;3.90;99.90;;;;;;5040045;28;20426;-57
2021/04/24 02:59:03;;;;;;;14.53;6.40;;;3.80;99.90;;;;;;5046682;28;20689;-51
2021/04/24 03:01:29;;;;;;;13.60;6.63;;;3.80;99.90;;;;;;5041820;28;20217;-55
2021/04/24 03:03:56;;;;;;;12.33;6.57;;;3.80;99.90;;;;;;5046981;28;20637;-55
2021/04/24 03:06:23;;;;;;;10.73;6.80;;;3.80;99.90;;;;;;5039738;28;20214;-57
2021/04/24 03:08:49;;;;;;;13.80;7.27;;;3.80;99.90;;;;;;5053686;28;20259;-55
2021/04/24 03:11:15;;;;;;;12.30;5.83;;;3.90;99.90;;;;;;5058953;28;20314;-55
2021/04/24 03:13:41;;;;;;;12.93;6.20;;;3.90;99.90;;;;;;5064860;28;20190;-52
2021/04/24 03:16:07;;;;;;;15.07;6.93;;;3.90;99.90;;;;;;5066890;28;20194;-55
2021/04/24 03:18:33;;;;;;;19.77;6.00;;;3.90;99.90;;;;;;5062946;28;20187;-56
2021/04/24 03:21:00;;;;;;;10.30;6.37;;;3.90;99.90;;;;;;5052117;28;20220;-55
2021/04/24 03:23:27;;;;;;;15.73;6.10;;;4.00;99.90;;;;;;5054175;28;20707;-56
2021/04/24 03:25:53;;;;;;;12.30;6.03;;;4.00;99.90;;;;;;5035555;28;20226;-55
2021/04/24 03:28:19;;;;;;;13.60;5.73;;;4.00;99.90;;;;;;5044588;28;20253;-54
2021/04/24 03:30:45;;;;;;;13.43;6.50;;;4.00;99.90;;;;;;5043415;28;20228;-56
2021/04/24 03:33:12;;;;;;;13.90;6.63;;;4.00;99.90;;;;;;5044537;28;20310;-57
2021/04/24 03:35:39;;;;;;;10.00;6.37;;;3.90;99.90;;;;;;5041935;28;20213;-55
2021/04/24 03:38:05;;;;;;;12.27;5.40;;;3.90;99.90;;;;;;5046847;28;20206;-53
2021/04/24 03:40:32;;;;;;;11.77;6.27;;;3.90;99.90;;;;;;5056972;28;20218;-57
2021/04/24 03:42:58;;;;;;;13.47;6.23;;;3.90;99.90;;;;;;5044174;28;20842;-55
2021/04/24 03:45:25;;;;;;;11.20;6.03;;;3.90;99.90;;;;;;5065907;28;20204;-53
2021/04/24 03:47:53;;;;;;;12.07;5.83;;;3.80;99.90;;;;;;5062368;28;20536;-54
2021/04/24 03:50:20;;;;;;;10.13;4.90;;;3.80;99.90;;;;;;5065696;28;20222;-56
2021/04/24 03:52:47;;;;;;;9.37;5.43;;;3.80;99.90;;;;;;5040693;28;20784;-55
2021/04/24 03:55:15;;;;;;;10.97;5.63;;;3.80;99.90;;;;;;5050849;28;20249;-55
2021/04/24 03:57:43;;;;;;;11.67;6.10;;;3.80;99.90;;;;;;5044031;28;20195;-55
2021/04/24 04:00:12;;;;;;;11.97;6.20;;;3.90;99.90;;;;;;5043539;28;20379;-56
2021/04/24 04:02:48;;;;;;;13.57;6.27;;;3.90;99.90;;;;;;5036839;28;20717;-56
2021/04/24 04:05:16;;;;;;;9.37;6.13;;;4.00;99.90;;;;;;5044780;28;20248;-53
2021/04/24 04:07:42;;;;;;;10.80;6.10;;;4.00;99.90;;;;;;5039328;28;20215;-54
2021/04/24 04:10:10;;;;;;;13.57;5.33;;;4.00;99.90;;;;;;5055175;28;20582;-55
2021/04/24 04:12:36;;;;;;;8.67;5.60;;;4.00;99.90;;;;;;5064673;28;20206;-55
2021/04/24 04:15:05;;;;;;;13.27;5.80;;;4.00;99.90;;;;;;5062808;28;20383;-56
2021/04/24 04:17:32;;;;;;;8.40;5.00;;;4.00;99.90;;;;;;5065710;28;20198;-54
2021/04/24 04:19:58;;;;;;;10.57;5.70;;;4.10;99.90;;;;;;5061215;28;20475;-55
2021/04/24 04:22:24;;;;;;;11.47;6.40;;;4.10;99.90;;;;;;5047087;28;20234;-56
2021/04/24 04:24:50;;;;;;;12.60;6.00;;;4.10;99.90;;;;;;5052689;28;20217;-56
2021/04/24 04:27:16;;;;;;;14.53;5.67;;;4.10;99.90;;;;;;5064504;28;20198;-53
2021/04/24 04:29:43;;;;;;;10.03;5.17;;;4.00;99.90;;;;;;5063023;28;20220;-52
2021/04/24 04:32:10;;;;;;;11.13;4.90;;;4.10;99.90;;;;;;5063231;28;20300;-54
2021/04/24 04:34:36;;;;;;;11.93;5.27;;;4.00;99.90;;;;;;5064523;28;20263;-56
2021/04/24 04:37:02;;;;;;;9.13;5.23;;;4.10;99.90;;;;;;5048632;28;20225;-54
2021/04/24 04:39:29;;;;;;;13.93;5.90;;;4.10;99.90;;;;;;5056747;28;20201;-56
2021/04/24 04:41:55;;;;;;;9.60;4.97;;;4.10;99.90;;;;;;5020908;28;20214;-53
2021/04/24 04:44:21;;;;;;;14.37;6.13;;;4.10;99.90;;;;;;5025183;28;20191;-56
2021/04/24 04:46:48;;;;;;;13.27;5.63;;;4.10;99.90;;;;;;5022465;28;20197;-56
2021/04/24 04:49:15;;;;;;;10.90;5.37;;;4.20;99.90;;;;;;5023708;28;20207;-55
2021/04/24 04:51:41;;;;;;;13.77;5.57;;;4.20;99.90;;;;;;5023520;28;20219;-52
2021/04/24 04:54:07;;;;;;;10.87;5.13;;;4.20;99.90;;;;;;5029980;28;20214;-52
2021/04/24 04:56:33;;;;;;;13.67;5.50;;;4.20;99.90;;;;;;5052436;28;20198;-57
2021/04/24 04:58:59;;;;;;;10.57;5.17;;;4.20;99.90;;;;;;5040712;28;20194;-53
2021/04/24 05:01:25;;;;;;;14.27;5.43;;;4.30;99.90;;;;;;5044778;28;20263;-54
2021/04/24 05:03:51;;;;;;;10.53;5.07;;;4.30;99.90;;;;;;5040466;28;20664;-56
2021/04/24 05:06:18;;;;;;;12.87;4.40;;;4.30;99.90;;;;;;5039373;28;20206;-53
2021/04/24 05:08:45;;;;;;;11.13;4.90;;;4.40;99.90;;;;;;5031016;28;20694;-56
2021/04/24 05:11:11;;;;;;;12.70;4.80;;;4.40;99.90;;;;;;5044934;28;20237;-53
2021/04/24 05:13:38;;;;;;;7.83;4.87;;;4.40;99.90;;;;;;5048616;28;20608;-52
2021/04/24 05:16:04;;;;;;;13.80;4.30;;;4.40;99.90;;;;;;5053108;28;20198;-56
2021/04/24 05:18:30;;;;;;;8.87;4.40;;;4.50;99.90;;;;;;5056175;28;20196;-53
2021/04/24 05:20:57;;;;;;;10.40;4.63;;;4.50;99.90;;;;;;5044366;28;20226;-55
2021/04/24 05:23:24;;;;;;;16.33;5.60;;;4.60;99.90;;;;;;5045816;28;20218;-55
2021/04/24 05:25:50;;;;;;;7.40;4.07;;;4.60;99.90;;;;;;5055524;28;20203;-57
2021/04/24 05:28:16;;;;;;;10.27;4.17;;;4.70;99.90;;;;;;5050312;28;20195;-54
2021/04/24 05:30:42;;;;;;;12.97;4.53;;;4.70;99.90;;;;;;5050473;28;20642;-52
2021/04/24 05:33:08;;;;;;;8.80;4.50;;;4.70;99.90;;;;;;5054244;28;21015;-54
2021/04/24 05:35:34;;;;;;;10.50;4.23;;;4.80;99.90;;;;;;5059409;28;20195;-56
2021/04/24 05:38:01;;;;;;;9.33;4.13;;;4.80;99.90;;;;;;5032615;28;20215;-55
2021/04/24 05:40:28;;;;;;;12.23;4.53;;;4.90;99.90;;;;;;5055782;28;20194;-55
2021/04/24 05:42:54;;;;;;;9.47;4.20;;;4.90;99.90;;;;;;5050728;28;20437;-55
2021/04/24 05:45:20;;;;;;;11.97;4.27;;;5.00;99.90;;;;;;5028901;28;20460;-54
2021/04/24 05:47:48;;;;;;;9.40;3.87;;;5.10;99.90;;;;;;5050941;28;20235;-54
2021/04/24 05:50:16;;;;;;;10.93;4.37;;;5.10;99.90;;;;;;5029178;28;20507;-52
2021/04/24 05:52:42;;;;;;;10.33;4.10;;;5.20;99.90;;;;;;5037323;28;20210;-56
2021/04/24 05:55:10;;;;;;;8.43;3.73;;;5.20;99.90;;;;;;5023328;28;20199;-53
2021/04/24 05:57:38;;;;;;;11.00;3.40;;;5.30;99.90;;;;;;5047971;28;20199;-55
2021/04/24 06:00:07;;;;;;;9.03;4.10;;;5.30;99.90;;;;;;5034398;28;20207;-57
2021/04/24 06:02:35;;;;;;;9.70;3.93;;;5.40;99.90;;;;;;5036046;28;20205;-54
2021/04/24 06:05:02;;;;;;;10.00;4.17;;;5.40;99.90;;;;;;5030939;28;20203;-54
2021/04/24 06:07:28;;;;;;;11.43;3.90;;;5.50;99.90;;;;;;5045267;28;20202;-54
2021/04/24 06:09:54;;;;;;;8.57;4.60;;;5.60;99.90;;;;;;5033489;28;20211;-56
2021/04/24 06:12:21;;;;;;;10.40;3.93;;;5.60;99.90;;;;;;5051394;28;20860;-53
2021/04/24 06:14:48;;;;;;;9.57;3.97;;;5.70;99.90;;;;;;5049818;28;20203;-54
2021/04/24 06:17:14;;;;;;;11.10;4.60;;;5.80;99.90;;;;;;5041331;28;20206;-51
2021/04/24 06:19:40;;;;;;;6.30;3.47;;;5.90;99.90;;;;;;5042784;28;20202;-53
2021/04/24 06:22:06;;;;;;;7.17;3.77;;;5.90;99.90;;;;;;5023858;28;20223;-55
2021/04/24 06:24:32;;;;;;;13.03;4.40;;;6.00;99.90;;;;;;5037527;28;20700;-53
2021/04/24 06:26:58;;;;;;;9.70;3.33;;;6.10;99.90;;;;;;5040139;28;20211;-55
2021/04/24 06:29:24;;;;;;;10.23;3.37;;;6.10;99.90;;;;;;5058435;28;20203;-55
2021/04/24 06:31:51;;;;;;;15.93;3.90;;;6.20;99.90;;;;;;5035739;28;20457;-52
2021/04/24 06:34:17;;;;;;;15.07;3.47;;;6.30;99.90;;;;;;5042974;28;20196;-55
2021/04/24 06:36:44;;;;;;;13.13;3.40;;;6.50;99.90;;;;;;5036592;28;20199;-55
2021/04/24 06:39:10;;;;;;;10.33;3.77;;;6.50;99.90;;;;;;5041610;28;20226;-55
2021/04/24 06:41:36;;;;;;;12.20;3.73;;;6.60;99.90;;;;;;5038744;28;20223;-55
2021/04/24 06:44:03;;;;;;;11.93;4.07;;;6.70;99.90;;;;;;5036868;28;20409;-54
2021/04/24 06:46:29;;;;;;;6.40;3.13;;;6.80;99.90;;;;;;5021160;28;20260;-55
2021/04/24 06:48:56;;;;;;;13.13;3.50;;;6.80;99.90;;;;;;5039355;28;20887;-57
2021/04/24 06:51:23;;;;;;;9.40;3.17;;;6.90;99.90;;;;;;5042476;28;20219;-57
2021/04/24 06:53:49;;;;;;;8.90;2.63;;;6.90;99.90;;;;;;5035020;28;20479;-57
2021/04/24 06:56:15;;;;;;;10.90;3.37;;;7.00;99.90;;;;;;5034661;28;20215;-57
2021/04/24 06:58:41;;;;;;;17.07;3.37;;;7.10;99.90;;;;;;5047000;28;20199;-56
2021/04/24 07:01:07;;;;;;;9.83;3.30;;;7.20;99.90;;;;;;5042278;28;20215;-57
2021/04/24 07:03:33;;;;;;;9.93;3.03;;;7.20;99.90;;;;;;5038938;28;20203;-56
2021/04/24 07:06:00;;;;;;;12.97;3.23;;;7.30;99.90;;;;;;5040346;28;20370;-57
2021/04/24 07:08:26;;;;;;;10.77;3.27;;;7.40;99.90;;;;;;5047896;28;20302;-57
2021/04/24 07:10:53;;;;;;;10.93;3.50;;;7.40;99.90;;;;;;5047189;28;20357;-56
2021/04/24 07:13:19;;;;;;;13.97;3.23;;;7.40;99.90;;;;;;5051129;28;20195;-56
2021/04/24 07:15:45;;;;;;;9.43;2.70;;;7.50;99.90;;;;;;5045310;28;20209;-57
2021/04/24 07:18:11;;;;;;;10.63;2.80;;;7.50;99.90;;;;;;5040361;28;20196;-54
2021/04/24 07:20:37;;;;;;;10.90;2.97;;;7.50;99.90;;;;;;5040515;28;20688;-54
2021/04/24 07:23:04;;;;;;;8.83;2.87;;;7.60;99.90;;;;;;5038084;28;20444;-55
2021/04/24 07:25:30;;;;;;;8.03;2.33;;;7.60;99.90;;;;;;5042402;28;20207;-52
2021/04/24 07:27:56;;;;;;;14.10;2.80;;;7.70;99.90;;;;;;5035945;28;20199;-56
2021/04/24 07:30:23;;;;;;;13.10;3.17;;;7.80;99.90;;;;;;5043842;28;20302;-56
2021/04/24 07:32:50;;;;;;;14.60;3.07;;;7.80;99.90;;;;;;5042276;28;20187;-55
2021/04/24 07:35:16;;;;;;;8.30;3.10;;;7.90;99.90;;;;;;5043702;28;20208;-55
2021/04/24 07:37:43;;;;;;;8.30;2.97;;;7.90;99.90;;;;;;5043074;28;20232;-56
2021/04/24 07:40:13;;;;;;;10.10;2.50;;;7.90;99.90;;;;;;5037188;28;20222;-54
2021/04/24 07:42:39;;;;;;;8.13;3.07;;;8.00;99.90;;;;;;5037318;28;20238;-52
2021/04/24 07:45:07;;;;;;;6.20;2.70;;;8.10;99.90;;;;;;5048179;28;20641;-54
2021/04/24 07:47:33;;;;;;;9.37;3.07;;;8.20;99.90;;;;;;5045006;28;20246;-54
2021/04/24 07:50:00;;;;;;;6.17;2.57;;;8.30;99.90;;;;;;5022107;28;20352;-55
2021/04/24 07:52:26;;;;;;;8.67;2.70;;;8.40;99.90;;;;;;5028318;28;20219;-56
2021/04/24 07:54:52;;;;;;;11.03;2.43;;;8.40;99.90;;;;;;5037654;28;20720;-54
2021/04/24 07:57:19;;;;;;;8.87;2.87;;;8.40;99.90;;;;;;5044041;28;20195;-52
2021/04/24 07:59:45;;;;;;;8.20;2.30;;;8.50;99.90;;;;;;5022121;28;20227;-57
2021/04/24 08:02:13;;;;;;;6.97;3.13;;;8.50;99.90;;;;;;5053836;28;20225;-54
2021/04/24 08:04:39;;;;;;;12.33;2.97;;;8.60;99.90;;;;;;5060055;28;20194;-57
2021/04/24 08:07:07;;;;;;;7.80;2.70;;;8.60;99.90;;;;;;5038847;28;20200;-55
2021/04/24 08:09:33;;;;;;;11.75;3.45;;;8.70;99.90;;;;;;5047547;28;20792;-57
2021/04/24 08:11:59;;;;;;;6.43;2.20;;;8.70;99.90;;;;;;5038559;28;20457;-57
2021/04/24 08:14:26;;;;;;;7.17;2.60;;;8.80;99.90;;;;;;5033857;28;20208;-54
2021/04/24 08:16:53;;;;;;;7.70;2.33;;;9.00;99.90;;;;;;5035152;28;20251;-54
2021/04/24 08:19:20;;;;;;;7.90;2.70;;;9.30;99.90;;;;;;5032751;28;20192;-54
2021/04/24 08:21:46;;;;;;;9.77;2.93;;;9.50;99.90;;;;;;5036609;28;20215;-50
2021/04/24 08:24:12;;;;;;;9.77;2.60;;;9.50;99.90;;;;;;5018043;28;20559;-54
2021/04/24 08:26:39;;;;;;;11.23;2.57;;;9.50;99.90;;;;;;5035016;28;20207;-55
2021/04/24 08:29:07;;;;;;;8.57;2.20;;;9.50;99.90;;;;;;5031643;28;20285;-56
2021/04/24 08:31:34;;;;;;;8.90;2.53;;;9.50;99.90;;;;;;5047680;28;20232;-56
2021/04/24 08:34:01;;;;;;;7.70;3.23;;;9.50;99.90;;;;;;5062313;28;20346;-57
2021/04/24 08:36:28;;;;;;;6.63;2.90;;;9.50;99.90;;;;;;5038718;28;20238;-55
2021/04/24 08:38:54;;;;;;;9.60;2.77;;;9.50;99.90;;;;;;5051261;28;20196;-58
2021/04/24 08:41:21;;;;;;;8.23;2.40;;;9.60;99.90;;;;;;5032243;28;20380;-58
2021/04/24 08:43:48;;;;;;;6.40;2.60;;;9.60;99.90;;;;;;5048949;28;20204;-56
2021/04/24 08:46:16;;;;;;;8.97;2.33;;;9.70;99.90;;;;;;5014793;28;20211;-57
2021/04/24 08:48:43;;;;;;;9.47;2.67;;;9.80;99.90;;;;;;5056346;28;20202;-54
2021/04/24 08:51:10;;;;;;;8.27;2.30;;;9.70;99.90;;;;;;5033094;28;20223;-56
2021/04/24 08:53:36;;;;;;;6.87;2.90;;;9.50;99.90;;;;;;5051470;28;20223;-57
2021/04/24 08:56:02;;;;;;;7.00;2.40;;;9.60;99.90;;;;;;5043933;28;20495;-55
2021/04/24 08:58:29;;;;;;;4.53;2.00;;;9.70;99.90;;;;;;5032573;28;20261;-57
2021/04/24 09:00:55;;;;;;;3.93;2.10;;;9.80;99.90;;;;;;5025111;28;20422;-56
2021/04/24 09:03:21;;;;;;;5.53;2.33;;;9.90;99.90;;;;;;5058981;28;20662;-56
2021/04/24 09:05:49;;;;;;;3.63;1.73;;;9.90;99.90;;;;;;5034982;28;20298;-58
2021/04/24 09:08:23;;;;;;;6.50;2.63;;;10.00;99.90;;;;;;5042436;28;20203;-57
2021/04/24 09:10:49;;;;;;;6.37;2.60;;;10.10;99.90;;;;;;5017690;28;20243;-56
2021/04/24 09:13:18;;;;;;;8.53;3.17;;;10.00;99.90;;;;;;5044370;28;20199;-55
2021/04/24 09:15:44;;;;;;;9.17;2.57;;;10.10;99.90;;;;;;5003628;28;20302;-57
2021/04/24 09:18:12;;;;;;;5.57;2.10;;;10.20;99.90;;;;;;5042936;28;20267;-54
2021/04/24 09:20:45;;;;;;;6.17;2.20;;;10.20;99.90;;;;;;5030852;28;20410;-56
2021/04/24 09:23:14;;;;;;;7.20;2.20;;;10.20;99.00;;;;;;5030024;28;20478;-53
2021/04/24 09:25:43;;;;;;;5.53;2.10;;;10.10;98.10;;;;;;5054949;28;20206;-55
2021/04/24 09:28:11;;;;;;;5.90;2.13;;;10.00;98.40;;;;;;5040852;28;20722;-55
2021/04/24 09:30:39;;;;;;;6.37;2.27;;;10.10;98.70;;;;;;5026900;28;20249;-56
2021/04/24 09:33:11;;;;;;;4.43;1.93;;;10.20;97.20;;;;;;5046514;28;20282;-54
2021/04/24 09:35:45;;;;;;;4.27;2.10;;;10.40;96.40;;;;;;5053294;28;20378;-54
2021/04/24 09:38:21;;;;;;;6.97;2.40;;;10.50;96.10;;;;;;5045208;28;20203;-54
2021/04/24 09:41:14;;;;;;;6.10;2.30;;;10.70;95.60;;;;;;5042282;28;20199;-54
2021/04/24 09:43:53;;;;;;;7.00;2.60;;;10.80;92.60;;;;;;5039848;28;20184;-56
2021/04/24 09:46:20;;;;;;;9.33;3.03;;;10.70;93.40;;;;;;5037851;28;20234;-56
2021/04/24 09:48:47;;;;;;;5.87;1.90;;;10.70;93.50;;;;;;5037898;28;20206;-54
2021/04/24 09:51:18;;;;;;;5.73;2.17;;;10.80;93.00;;;;;;5049631;28;20226;-54
2021/04/24 09:53:55;;;;;;;4.63;2.03;;;10.70;92.00;;;;;;5025449;28;20207;-55
2021/04/24 09:56:25;;;;;;;7.33;2.03;;;10.60;91.80;;;;;;5033671;28;20257;-55
2021/04/24 09:58:51;;;;;;;4.87;2.33;;;10.50;92.50;;;;;;5046211;28;20339;-56
2021/04/24 10:01:25;;;;;;;6.13;1.97;;;10.50;91.60;;;;;;5038546;28;20219;-57
2021/04/24 10:03:54;;;;;;;4.80;3.27;;;10.70;91.70;;;;;;5051211;28;20298;-54
2021/04/24 10:06:26;;;;;;;2.93;1.50;;;10.80;90.20;;;;;;5035109;28;20649;-57
2021/04/24 10:09:18;;;;;;;2.60;1.90;;;10.90;86.30;;;;;;5030480;28;20335;-50
2021/04/24 10:11:51;;;;;;;4.73;2.60;;;10.90;80.60;;;;;;5056734;28;20302;-57
2021/04/24 10:14:28;;;;;;;6.80;2.10;;;10.90;85.60;;;;;;5062430;28;20194;-55
2021/04/24 10:16:55;;;;;;;4.47;1.67;;;10.80;79.40;;;;;;5047251;28;20957;-52
2021/04/24 10:19:21;;;;;;;2.97;1.60;;;10.90;82.30;;;;;;5052506;28;20536;-55
2021/04/24 10:21:47;;;;;;;5.17;1.67;;;10.80;78.40;;;;;;5033332;28;20231;-53
2021/04/24 10:24:13;;;;;;;2.30;1.40;;;10.80;79.20;;;;;;5044803;28;20212;-56
2021/04/24 10:26:43;;;;;;;3.13;1.00;;;10.70;73.80;;;;;;5040678;28;20215;-53
2021/04/24 10:29:09;;;;;;;0.70;0.70;;;10.80;70.50;;;;;;5042136;28;20195;-52
2021/04/24 10:31:36;;;;;;;3.23;1.90;;;11.00;66.50;;;;;;5038507;28;20223;-55
2021/04/24 10:34:05;;;;;;;3.43;1.77;;;11.50;64.50;;;;;;5035662;28;20199;-52
2021/04/24 10:36:32;;;;;;;4.20;1.63;;;11.60;65.10;;;;;;5038980;28;20540;-57
2021/04/24 10:38:59;;;;;;;2.40;1.40;;;11.50;64.80;;;;;;5033708;28;20204;-54
2021/04/24 10:41:29;;;;;;;2.23;1.27;;;11.40;61.60;;;;;;5028640;28;20223;-58
2021/04/24 10:44:05;;;;;;;1.70;1.30;;;11.30;60.40;;;;;;5036306;28;20226;-54
2021/04/24 10:46:34;;;;;;;3.40;1.80;;;11.40;59.80;;;;;;5034242;28;20195;-58
2021/04/24 10:49:25;;;;;;;2.03;1.53;;;11.20;60.90;;;;;;5027905;28;20588;-55
2021/04/24 10:51:57;;;;;;;2.10;1.27;;;11.30;62.30;;;;;;5022798;28;20622;-55
2021/04/24 10:54:24;;;;;;;3.17;1.47;;;11.30;64.20;;;;;;5027292;28;20245;-56
2021/04/24 10:56:50;;;;;;;5.23;1.90;;;11.50;63.60;;;;;;5042022;28;20937;-53
2021/04/24 10:59:25;;;;;;;3.77;1.40;;;11.60;64.10;;;;;;5050802;28;20188;-56
2021/04/24 11:02:13;;;;;;;3.47;1.80;;;11.60;60.50;;;;;;5044803;28;20308;-54
2021/04/24 11:04:41;;;;;;;10.03;1.90;;;11.50;60.40;;;;;;5043558;28;20205;-59
2021/04/24 11:07:25;;;;;;;1.30;1.20;;;11.60;61.50;;;;;;5028457;28;20294;-55
2021/04/24 11:10:26;;;;;;;6.27;1.83;;;11.70;59.20;;;;;;5039971;28;20215;-59
2021/04/24 11:12:52;;;;;;;4.10;1.60;;;11.80;59.20;;;;;;5036240;28;20298;-56
2021/04/24 11:15:21;;;;;;;2.07;1.40;;;11.80;61.50;;;;;;5028855;28;20199;-54
2021/04/24 11:17:49;;;;;;;2.40;1.50;;;11.90;59.20;;;;;;5048377;28;20207;-55
2021/04/24 11:21:02;;;;;;;1.87;1.63;;;11.80;59.50;;;;;;5025236;28;20481;-58
2021/04/24 11:23:49;;;;;;;3.13;2.13;;;11.80;60.60;;;;;;4983312;28;20215;-55
2021/04/24 11:26:18;;;;;;;3.03;1.57;;;11.70;60.10;;;;;;5022938;28;20203;-50
2021/04/24 11:29:07;;;;;;;2.70;1.53;;;11.50;59.40;;;;;;5033686;28;20206;-57
2021/04/24 11:32:00;;;;;;;2.47;1.83;;;11.60;60.00;;;;;;5062602;28;20692;-53
2021/04/24 11:34:35;;;;;;;5.00;1.67;;;11.90;61.80;;;;;;5065778;28;20202;-53
2021/04/24 11:37:34;;;;;;;6.00;1.40;;;12.20;61.80;;;;;;5020320;28;20195;-50
2021/04/24 11:40:22;;;;;;;4.57;1.70;;;12.30;57.80;;;;;;5015187;28;20717;-57
2021/04/24 11:42:57;;;;;;;2.57;2.07;;;12.50;58.90;;;;;;5048618;28;20283;-58
2021/04/24 11:46:05;;;;;;;5.80;1.70;;;12.50;57.40;;;;;;5049210;28;20226;-49
2021/04/24 11:49:01;;;;;;;4.53;1.87;;;12.40;58.60;;;;;;5035554;28;20318;-55
2021/04/24 11:51:32;;;;;;;4.67;2.10;;;12.30;58.20;;;;;;5034296;28;20723;-50
2021/04/24 11:53:59;;;;;;;3.00;1.67;;;12.00;59.60;;;;;;5045077;28;20197;-58
2021/04/24 11:56:25;;;;;;;2.77;1.77;;;12.00;60.80;;;;;;5046649;28;20261;-55
2021/04/24 11:58:52;;;;;;;3.70;2.57;;;12.00;61.60;;;;;;5042567;28;20652;-56
2021/04/24 12:01:19;;;;;;;4.40;2.17;;;12.20;60.00;;;;;;5041202;28;20412;-55
2021/04/24 12:03:46;;;;;;;4.60;1.80;;;12.20;59.30;;;;;;5043774;28;20270;-58
2021/04/24 12:06:13;;;;;;;2.13;1.70;;;12.10;59.40;;;;;;5012344;28;20413;-55
2021/04/24 12:08:39;;;;;;;2.77;1.70;;;12.00;59.70;;;;;;5044655;28;20254;-55
2021/04/24 12:11:09;;;;;;;2.70;2.10;;;12.00;60.60;;;;;;5048310;28;20711;-52
2021/04/24 12:13:35;;;;;;;1.60;1.50;;;12.10;58.60;;;;;;5060133;28;20729;-49
2021/04/24 12:16:02;;;;;;;2.80;1.90;;;12.10;59.10;;;;;;5045864;28;20195;-51
2021/04/24 12:18:30;;;;;;;3.37;1.90;;;12.20;58.20;;;;;;5049936;28;20203;-52
2021/04/24 12:20:56;;;;;;;4.27;2.00;;;12.40;59.60;;;;;;5013974;28;20623;-55
2021/04/24 12:23:23;;;;;;;4.77;1.80;;;12.60;59.30;;;;;;5038258;28;20211;-49
2021/04/24 12:25:50;;;;;;;5.73;2.03;;;12.50;60.00;;;;;;5042417;28;20207;-55
2021/04/24 12:28:18;;;;;;;2.37;1.90;;;12.30;60.50;;;;;;5044356;28;20288;-52
2021/04/24 12:30:45;;;;;;;2.13;1.63;;;12.20;60.80;;;;;;5045007;28;20230;-55
2021/04/24 12:33:13;;;;;;;4.80;1.97;;;12.00;61.10;;;;;;5046842;28;20335;-52
2021/04/24 12:35:41;;;;;;;3.40;1.80;;;12.10;61.20;;;;;;5056155;28;20239;-53
2021/04/24 12:38:09;;;;;;;3.13;1.67;;;12.10;60.00;;;;;;5037272;28;20415;-50
2021/04/24 12:40:38;;;;;;;2.67;1.33;;;12.10;59.20;;;;;;5037766;28;20206;-52
2021/04/24 12:43:06;;;;;;;2.70;1.47;;;12.10;59.30;;;;;;5040966;28;20807;-49
2021/04/24 12:45:33;;;;;;;4.70;2.10;;;12.10;59.90;;;;;;5044646;28;20196;-51
2021/04/24 12:47:59;;;;;;;2.57;2.13;;;12.30;61.10;;;;;;5040649;28;20664;-56
2021/04/24 12:50:29;;;;;;;5.60;1.60;;;12.70;60.00;;;;;;5043188;28;20230;-53
2021/04/24 12:52:57;;;;;;;1.60;1.50;;;12.70;58.10;;;;;;5032400;28;20206;-56
2021/04/24 12:55:31;;;;;;;5.67;1.70;;;12.70;57.90;;;;;;5050037;28;20206;-56